Aviation Digital Data Service (ADDS)

Output produced by METARs form (0921 UTC 29 March 2015)
found at http://aviationweather.gov/adds/metars/
 
KLYH 290524Z 2906/3006 00000KT P6SM SKC 
     FM291600 23005KT P6SM SKC 
     FM292000 20008KT P6SM SKC 
     FM300300 20008KT P6SM OVC250